sensor_id;sensor_type;location;lat;lon;timestamp;P1;durP1;ratioP1;P2;durP2;ratioP2
11524;SDS011;5819;49.648;8.330;2022-12-19T00:00:34;80.50;;;41.87;;
11524;SDS011;5819;49.648;8.330;2022-12-19T00:03:02;75.50;;;39.83;;
11524;SDS011;5819;49.648;8.330;2022-12-19T00:05:30;76.47;;;39.00;;
11524;SDS011;5819;49.648;8.330;2022-12-19T00:08:03;67.10;;;38.07;;
11524;SDS011;5819;49.648;8.330;2022-12-19T00:10:42;71.23;;;38.73;;
11524;SDS011;5819;49.648;8.330;2022-12-19T00:13:13;71.77;;;38.83;;
11524;SDS011;5819;49.648;8.330;2022-12-19T00:15:42;71.17;;;37.10;;
11524;SDS011;5819;49.648;8.330;2022-12-19T00:18:10;73.17;;;38.73;;
11524;SDS011;5819;49.648;8.330;2022-12-19T00:20:38;72.93;;;39.47;;
11524;SDS011;5819;49.648;8.330;2022-12-19T00:23:05;69.43;;;37.80;;
11524;SDS011;5819;49.648;8.330;2022-12-19T00:25:34;73.70;;;37.77;;
11524;SDS011;5819;49.648;8.330;2022-12-19T00:28:05;69.97;;;37.70;;
11524;SDS011;5819;49.648;8.330;2022-12-19T00:30:33;72.67;;;38.70;;
11524;SDS011;5819;49.648;8.330;2022-12-19T00:33:02;69.60;;;37.27;;
11524;SDS011;5819;49.648;8.330;2022-12-19T00:35:30;69.13;;;38.90;;
11524;SDS011;5819;49.648;8.330;2022-12-19T00:37:58;70.70;;;38.90;;
11524;SDS011;5819;49.648;8.330;2022-12-19T00:40:26;67.27;;;37.23;;
11524;SDS011;5819;49.648;8.330;2022-12-19T00:42:55;69.13;;;38.80;;
11524;SDS011;5819;49.648;8.330;2022-12-19T00:45:25;71.67;;;38.03;;
11524;SDS011;5819;49.648;8.330;2022-12-19T00:47:55;66.73;;;36.30;;
11524;SDS011;5819;49.648;8.330;2022-12-19T00:50:24;69.30;;;37.53;;
11524;SDS011;5819;49.648;8.330;2022-12-19T00:52:52;73.77;;;39.00;;
11524;SDS011;5819;49.648;8.330;2022-12-19T00:55:19;73.10;;;38.77;;
11524;SDS011;5819;49.648;8.330;2022-12-19T00:57:47;66.47;;;36.00;;
11524;SDS011;5819;49.648;8.330;2022-12-19T01:00:18;73.80;;;38.00;;
11524;SDS011;5819;49.648;8.330;2022-12-19T01:02:46;65.90;;;36.43;;
11524;SDS011;5819;49.648;8.330;2022-12-19T01:05:13;66.87;;;36.17;;
11524;SDS011;5819;49.648;8.330;2022-12-19T01:07:43;65.07;;;37.23;;
11524;SDS011;5819;49.648;8.330;2022-12-19T01:10:10;73.70;;;38.50;;
11524;SDS011;5819;49.648;8.330;2022-12-19T01:12:38;68.47;;;36.70;;
11524;SDS011;5819;49.648;8.330;2022-12-19T01:15:11;67.77;;;36.83;;
11524;SDS011;5819;49.648;8.330;2022-12-19T01:17:40;75.80;;;37.97;;
11524;SDS011;5819;49.648;8.330;2022-12-19T01:20:11;72.97;;;37.87;;
11524;SDS011;5819;49.648;8.330;2022-12-19T01:22:40;68.47;;;35.53;;
11524;SDS011;5819;49.648;8.330;2022-12-19T01:25:09;63.50;;;36.13;;
11524;SDS011;5819;49.648;8.330;2022-12-19T01:27:37;62.37;;;36.33;;
11524;SDS011;5819;49.648;8.330;2022-12-19T01:30:06;66.53;;;35.87;;
11524;SDS011;5819;49.648;8.330;2022-12-19T01:32:35;68.03;;;36.80;;
11524;SDS011;5819;49.648;8.330;2022-12-19T01:35:03;72.77;;;39.10;;
11524;SDS011;5819;49.648;8.330;2022-12-19T01:37:35;65.93;;;36.57;;
11524;SDS011;5819;49.648;8.330;2022-12-19T01:40:03;72.53;;;37.93;;
11524;SDS011;5819;49.648;8.330;2022-12-19T01:42:34;72.87;;;37.80;;
11524;SDS011;5819;49.648;8.330;2022-12-19T01:45:04;67.23;;;37.57;;
11524;SDS011;5819;49.648;8.330;2022-12-19T01:47:49;70.03;;;37.63;;
11524;SDS011;5819;49.648;8.330;2022-12-19T01:50:22;69.87;;;37.87;;
11524;SDS011;5819;49.648;8.330;2022-12-19T01:52:53;71.97;;;38.73;;
11524;SDS011;5819;49.648;8.330;2022-12-19T01:55:23;68.53;;;38.30;;
11524;SDS011;5819;49.648;8.330;2022-12-19T01:57:53;67.30;;;36.53;;
11524;SDS011;5819;49.648;8.330;2022-12-19T02:00:24;68.13;;;36.90;;
11524;SDS011;5819;49.648;8.330;2022-12-19T02:02:53;71.90;;;36.83;;
11524;SDS011;5819;49.648;8.330;2022-12-19T02:05:25;67.10;;;37.60;;
11524;SDS011;5819;49.648;8.330;2022-12-19T02:07:53;68.93;;;37.93;;
11524;SDS011;5819;49.648;8.330;2022-12-19T02:10:21;67.53;;;36.27;;
11524;SDS011;5819;49.648;8.330;2022-12-19T02:12:49;65.93;;;37.27;;
11524;SDS011;5819;49.648;8.330;2022-12-19T02:15:19;69.13;;;37.03;;
11524;SDS011;5819;49.648;8.330;2022-12-19T02:20:50;66.10;;;34.90;;
11524;SDS011;5819;49.648;8.330;2022-12-19T02:26:45;65.93;;;35.63;;
11524;SDS011;5819;49.648;8.330;2022-12-19T02:29:32;66.50;;;35.53;;
11524;SDS011;5819;49.648;8.330;2022-12-19T02:32:22;69.17;;;37.73;;
11524;SDS011;5819;49.648;8.330;2022-12-19T02:35:02;70.20;;;36.37;;
11524;SDS011;5819;49.648;8.330;2022-12-19T02:37:40;65.23;;;36.40;;
11524;SDS011;5819;49.648;8.330;2022-12-19T02:40:20;67.13;;;36.77;;
11524;SDS011;5819;49.648;8.330;2022-12-19T02:42:53;64.77;;;36.10;;
11524;SDS011;5819;49.648;8.330;2022-12-19T02:45:25;66.40;;;36.80;;
11524;SDS011;5819;49.648;8.330;2022-12-19T02:47:58;70.60;;;37.43;;
11524;SDS011;5819;49.648;8.330;2022-12-19T02:50:36;71.23;;;38.60;;
11524;SDS011;5819;49.648;8.330;2022-12-19T02:53:05;66.33;;;37.20;;
11524;SDS011;5819;49.648;8.330;2022-12-19T02:55:37;65.77;;;36.87;;
11524;SDS011;5819;49.648;8.330;2022-12-19T02:58:22;66.03;;;36.37;;
11524;SDS011;5819;49.648;8.330;2022-12-19T03:01:04;68.13;;;36.57;;
11524;SDS011;5819;49.648;8.330;2022-12-19T03:03:45;63.97;;;35.30;;
11524;SDS011;5819;49.648;8.330;2022-12-19T03:06:28;69.43;;;36.57;;
11524;SDS011;5819;49.648;8.330;2022-12-19T03:09:06;66.83;;;34.97;;
11524;SDS011;5819;49.648;8.330;2022-12-19T03:11:40;68.20;;;37.37;;
11524;SDS011;5819;49.648;8.330;2022-12-19T03:14:10;64.50;;;36.87;;
11524;SDS011;5819;49.648;8.330;2022-12-19T03:16:40;69.53;;;37.20;;
11524;SDS011;5819;49.648;8.330;2022-12-19T03:19:10;69.80;;;37.77;;
11524;SDS011;5819;49.648;8.330;2022-12-19T03:21:41;64.57;;;36.03;;
11524;SDS011;5819;49.648;8.330;2022-12-19T03:24:13;69.63;;;38.90;;
11524;SDS011;5819;49.648;8.330;2022-12-19T03:26:43;70.80;;;36.67;;
11524;SDS011;5819;49.648;8.330;2022-12-19T03:29:16;63.53;;;35.83;;
11524;SDS011;5819;49.648;8.330;2022-12-19T03:31:47;64.17;;;36.40;;
11524;SDS011;5819;49.648;8.330;2022-12-19T03:34:18;69.23;;;37.90;;
11524;SDS011;5819;49.648;8.330;2022-12-19T03:36:52;68.40;;;37.23;;
11524;SDS011;5819;49.648;8.330;2022-12-19T03:39:23;61.33;;;32.93;;
11524;SDS011;5819;49.648;8.330;2022-12-19T03:41:52;59.60;;;31.60;;
11524;SDS011;5819;49.648;8.330;2022-12-19T03:44:39;57.77;;;31.57;;
11524;SDS011;5819;49.648;8.330;2022-12-19T03:47:10;59.90;;;32.37;;
11524;SDS011;5819;49.648;8.330;2022-12-19T03:49:42;58.73;;;31.30;;
11524;SDS011;5819;49.648;8.330;2022-12-19T03:52:14;59.90;;;30.57;;
11524;SDS011;5819;49.648;8.330;2022-12-19T03:54:53;60.47;;;32.30;;
11524;SDS011;5819;49.648;8.330;2022-12-19T03:57:28;59.00;;;32.73;;
11524;SDS011;5819;49.648;8.330;2022-12-19T04:00:02;61.30;;;32.50;;
11524;SDS011;5819;49.648;8.330;2022-12-19T04:02:42;60.87;;;32.17;;
11524;SDS011;5819;49.648;8.330;2022-12-19T04:05:16;57.17;;;31.10;;
11524;SDS011;5819;49.648;8.330;2022-12-19T04:07:47;61.10;;;32.13;;
11524;SDS011;5819;49.648;8.330;2022-12-19T04:10:18;62.13;;;33.23;;
11524;SDS011;5819;49.648;8.330;2022-12-19T04:12:49;63.33;;;33.13;;
11524;SDS011;5819;49.648;8.330;2022-12-19T04:15:20;56.17;;;29.83;;
11524;SDS011;5819;49.648;8.330;2022-12-19T04:17:58;54.93;;;29.70;;
11524;SDS011;5819;49.648;8.330;2022-12-19T04:20:31;56.97;;;29.67;;
11524;SDS011;5819;49.648;8.330;2022-12-19T04:23:05;51.07;;;28.13;;
11524;SDS011;5819;49.648;8.330;2022-12-19T04:25:39;53.90;;;28.43;;
11524;SDS011;5819;49.648;8.330;2022-12-19T04:28:14;55.33;;;29.77;;
11524;SDS011;5819;49.648;8.330;2022-12-19T04:30:46;51.23;;;28.13;;
11524;SDS011;5819;49.648;8.330;2022-12-19T04:33:16;57.10;;;29.63;;
11524;SDS011;5819;49.648;8.330;2022-12-19T04:35:45;56.10;;;29.20;;
11524;SDS011;5819;49.648;8.330;2022-12-19T04:38:13;56.17;;;28.70;;
11524;SDS011;5819;49.648;8.330;2022-12-19T04:40:40;52.93;;;29.63;;
11524;SDS011;5819;49.648;8.330;2022-12-19T04:43:08;58.43;;;30.87;;
11524;SDS011;5819;49.648;8.330;2022-12-19T04:45:36;52.70;;;27.97;;
11524;SDS011;5819;49.648;8.330;2022-12-19T04:48:04;52.83;;;28.83;;
11524;SDS011;5819;49.648;8.330;2022-12-19T04:50:34;52.87;;;27.87;;
11524;SDS011;5819;49.648;8.330;2022-12-19T04:53:03;57.07;;;28.97;;
11524;SDS011;5819;49.648;8.330;2022-12-19T04:55:31;50.90;;;28.00;;
11524;SDS011;5819;49.648;8.330;2022-12-19T04:57:58;55.07;;;29.20;;
11524;SDS011;5819;49.648;8.330;2022-12-19T05:00:29;52.63;;;27.80;;
11524;SDS011;5819;49.648;8.330;2022-12-19T05:02:56;54.70;;;27.70;;
11524;SDS011;5819;49.648;8.330;2022-12-19T05:05:24;54.07;;;27.93;;
11524;SDS011;5819;49.648;8.330;2022-12-19T05:07:52;54.17;;;28.33;;
11524;SDS011;5819;49.648;8.330;2022-12-19T05:10:26;49.67;;;27.47;;
11524;SDS011;5819;49.648;8.330;2022-12-19T05:12:53;51.03;;;28.37;;
11524;SDS011;5819;49.648;8.330;2022-12-19T05:15:21;51.27;;;27.53;;
11524;SDS011;5819;49.648;8.330;2022-12-19T05:17:49;53.00;;;26.97;;
11524;SDS011;5819;49.648;8.330;2022-12-19T05:20:16;47.83;;;26.57;;
11524;SDS011;5819;49.648;8.330;2022-12-19T05:22:44;52.87;;;27.70;;
11524;SDS011;5819;49.648;8.330;2022-12-19T05:25:12;54.83;;;27.80;;
11524;SDS011;5819;49.648;8.330;2022-12-19T05:27:42;51.07;;;27.17;;
11524;SDS011;5819;49.648;8.330;2022-12-19T05:30:10;58.37;;;28.93;;
11524;SDS011;5819;49.648;8.330;2022-12-19T05:32:38;53.33;;;27.90;;
11524;SDS011;5819;49.648;8.330;2022-12-19T05:35:06;51.47;;;27.43;;
11524;SDS011;5819;49.648;8.330;2022-12-19T05:37:34;54.13;;;28.37;;
11524;SDS011;5819;49.648;8.330;2022-12-19T05:40:02;53.30;;;27.67;;
11524;SDS011;5819;49.648;8.330;2022-12-19T05:42:30;54.57;;;28.30;;
11524;SDS011;5819;49.648;8.330;2022-12-19T05:45:00;49.97;;;26.63;;
11524;SDS011;5819;49.648;8.330;2022-12-19T05:47:28;54.17;;;28.10;;
11524;SDS011;5819;49.648;8.330;2022-12-19T05:49:55;49.37;;;25.90;;
11524;SDS011;5819;49.648;8.330;2022-12-19T05:52:23;51.27;;;26.77;;
11524;SDS011;5819;49.648;8.330;2022-12-19T05:54:51;50.67;;;27.53;;
11524;SDS011;5819;49.648;8.330;2022-12-19T05:57:18;52.07;;;28.33;;
11524;SDS011;5819;49.648;8.330;2022-12-19T05:59:46;56.13;;;27.83;;
11524;SDS011;5819;49.648;8.330;2022-12-19T06:02:15;49.27;;;27.80;;
11524;SDS011;5819;49.648;8.330;2022-12-19T06:04:43;53.60;;;27.37;;
11524;SDS011;5819;49.648;8.330;2022-12-19T06:07:11;52.87;;;28.43;;
11524;SDS011;5819;49.648;8.330;2022-12-19T06:09:46;49.47;;;26.50;;
11524;SDS011;5819;49.648;8.330;2022-12-19T06:12:13;50.00;;;26.90;;
11524;SDS011;5819;49.648;8.330;2022-12-19T06:14:41;54.70;;;28.03;;
11524;SDS011;5819;49.648;8.330;2022-12-19T06:17:09;51.27;;;26.43;;
11524;SDS011;5819;49.648;8.330;2022-12-19T06:19:38;49.97;;;26.30;;
11524;SDS011;5819;49.648;8.330;2022-12-19T06:22:05;49.43;;;26.00;;
11524;SDS011;5819;49.648;8.330;2022-12-19T06:24:37;55.03;;;29.13;;
11524;SDS011;5819;49.648;8.330;2022-12-19T06:27:04;53.70;;;29.23;;
11524;SDS011;5819;49.648;8.330;2022-12-19T06:29:32;49.50;;;27.20;;
11524;SDS011;5819;49.648;8.330;2022-12-19T06:32:00;47.33;;;25.90;;
11524;SDS011;5819;49.648;8.330;2022-12-19T06:34:28;48.97;;;26.97;;
11524;SDS011;5819;49.648;8.330;2022-12-19T06:37:17;52.93;;;27.27;;
11524;SDS011;5819;49.648;8.330;2022-12-19T06:39:45;47.87;;;26.43;;
11524;SDS011;5819;49.648;8.330;2022-12-19T06:42:13;46.10;;;26.50;;
11524;SDS011;5819;49.648;8.330;2022-12-19T06:44:48;51.57;;;27.97;;
11524;SDS011;5819;49.648;8.330;2022-12-19T06:47:17;51.60;;;27.13;;
11524;SDS011;5819;49.648;8.330;2022-12-19T06:49:45;51.53;;;27.80;;
11524;SDS011;5819;49.648;8.330;2022-12-19T06:52:13;51.23;;;27.63;;
11524;SDS011;5819;49.648;8.330;2022-12-19T06:54:43;54.37;;;28.77;;
11524;SDS011;5819;49.648;8.330;2022-12-19T06:57:11;59.33;;;28.70;;
11524;SDS011;5819;49.648;8.330;2022-12-19T06:59:39;52.33;;;27.67;;
11524;SDS011;5819;49.648;8.330;2022-12-19T07:02:09;46.73;;;26.63;;
11524;SDS011;5819;49.648;8.330;2022-12-19T07:04:48;51.97;;;27.67;;
11524;SDS011;5819;49.648;8.330;2022-12-19T07:07:23;50.37;;;28.00;;
11524;SDS011;5819;49.648;8.330;2022-12-19T07:09:52;53.57;;;28.33;;
11524;SDS011;5819;49.648;8.330;2022-12-19T07:12:20;55.93;;;30.07;;
11524;SDS011;5819;49.648;8.330;2022-12-19T07:14:48;52.57;;;28.33;;
11524;SDS011;5819;49.648;8.330;2022-12-19T07:17:19;49.13;;;27.90;;
11524;SDS011;5819;49.648;8.330;2022-12-19T07:19:48;52.20;;;28.53;;
11524;SDS011;5819;49.648;8.330;2022-12-19T07:22:16;49.23;;;27.33;;
11524;SDS011;5819;49.648;8.330;2022-12-19T07:24:44;58.57;;;28.00;;
11524;SDS011;5819;49.648;8.330;2022-12-19T07:27:14;53.60;;;28.17;;
11524;SDS011;5819;49.648;8.330;2022-12-19T07:29:42;53.20;;;27.37;;
11524;SDS011;5819;49.648;8.330;2022-12-19T07:32:09;54.87;;;28.07;;
11524;SDS011;5819;49.648;8.330;2022-12-19T07:34:37;52.70;;;27.73;;
11524;SDS011;5819;49.648;8.330;2022-12-19T07:37:05;52.80;;;28.33;;
11524;SDS011;5819;49.648;8.330;2022-12-19T07:39:33;54.83;;;28.93;;
11524;SDS011;5819;49.648;8.330;2022-12-19T07:42:01;56.70;;;29.17;;
11524;SDS011;5819;49.648;8.330;2022-12-19T07:44:36;55.80;;;29.20;;
11524;SDS011;5819;49.648;8.330;2022-12-19T07:47:04;52.67;;;28.43;;
11524;SDS011;5819;49.648;8.330;2022-12-19T07:49:34;52.63;;;28.10;;
11524;SDS011;5819;49.648;8.330;2022-12-19T07:52:02;51.30;;;28.07;;
11524;SDS011;5819;49.648;8.330;2022-12-19T07:54:30;51.07;;;27.87;;
11524;SDS011;5819;49.648;8.330;2022-12-19T07:56:58;51.90;;;28.23;;
11524;SDS011;5819;49.648;8.330;2022-12-19T07:59:27;51.70;;;28.17;;
11524;SDS011;5819;49.648;8.330;2022-12-19T08:02:05;53.40;;;27.90;;
11524;SDS011;5819;49.648;8.330;2022-12-19T08:04:33;50.83;;;27.87;;
11524;SDS011;5819;49.648;8.330;2022-12-19T08:07:01;53.57;;;28.50;;
11524;SDS011;5819;49.648;8.330;2022-12-19T08:09:29;50.27;;;27.03;;
11524;SDS011;5819;49.648;8.330;2022-12-19T08:11:58;57.40;;;29.33;;
11524;SDS011;5819;49.648;8.330;2022-12-19T08:14:26;53.40;;;28.73;;
11524;SDS011;5819;49.648;8.330;2022-12-19T08:16:54;54.40;;;30.90;;
11524;SDS011;5819;49.648;8.330;2022-12-19T08:19:43;51.27;;;28.87;;
11524;SDS011;5819;49.648;8.330;2022-12-19T08:22:11;52.57;;;28.13;;
11524;SDS011;5819;49.648;8.330;2022-12-19T08:24:38;53.17;;;29.43;;
11524;SDS011;5819;49.648;8.330;2022-12-19T08:27:06;57.20;;;28.20;;
11524;SDS011;5819;49.648;8.330;2022-12-19T08:29:34;52.20;;;28.07;;
11524;SDS011;5819;49.648;8.330;2022-12-19T08:32:01;52.77;;;26.77;;
11524;SDS011;5819;49.648;8.330;2022-12-19T08:34:30;53.17;;;28.07;;
11524;SDS011;5819;49.648;8.330;2022-12-19T08:36:59;52.00;;;27.20;;
11524;SDS011;5819;49.648;8.330;2022-12-19T08:39:27;59.20;;;29.27;;
11524;SDS011;5819;49.648;8.330;2022-12-19T08:41:55;56.50;;;30.07;;
11524;SDS011;5819;49.648;8.330;2022-12-19T08:44:22;59.63;;;32.93;;
11524;SDS011;5819;49.648;8.330;2022-12-19T08:46:50;52.10;;;28.53;;
11524;SDS011;5819;49.648;8.330;2022-12-19T08:49:18;51.77;;;27.63;;
11524;SDS011;5819;49.648;8.330;2022-12-19T08:51:46;52.03;;;29.73;;
11524;SDS011;5819;49.648;8.330;2022-12-19T08:54:15;53.53;;;29.00;;
11524;SDS011;5819;49.648;8.330;2022-12-19T08:56:43;55.87;;;29.03;;
11524;SDS011;5819;49.648;8.330;2022-12-19T08:59:12;56.67;;;28.50;;
11524;SDS011;5819;49.648;8.330;2022-12-19T09:01:55;52.07;;;28.80;;
11524;SDS011;5819;49.648;8.330;2022-12-19T09:04:23;56.27;;;28.97;;
11524;SDS011;5819;49.648;8.330;2022-12-19T09:07:10;53.77;;;29.33;;
11524;SDS011;5819;49.648;8.330;2022-12-19T09:09:42;54.97;;;29.43;;
11524;SDS011;5819;49.648;8.330;2022-12-19T09:12:10;54.00;;;28.80;;
11524;SDS011;5819;49.648;8.330;2022-12-19T09:14:38;52.07;;;28.70;;
11524;SDS011;5819;49.648;8.330;2022-12-19T09:17:06;54.00;;;29.83;;
11524;SDS011;5819;49.648;8.330;2022-12-19T09:19:34;54.37;;;29.60;;
11524;SDS011;5819;49.648;8.330;2022-12-19T09:22:03;57.73;;;29.27;;
11524;SDS011;5819;49.648;8.330;2022-12-19T09:24:30;54.23;;;29.77;;
11524;SDS011;5819;49.648;8.330;2022-12-19T09:26:59;59.07;;;31.27;;
11524;SDS011;5819;49.648;8.330;2022-12-19T09:29:27;53.47;;;30.23;;
11524;SDS011;5819;49.648;8.330;2022-12-19T09:32:00;61.97;;;31.83;;
11524;SDS011;5819;49.648;8.330;2022-12-19T09:34:28;55.37;;;31.83;;
11524;SDS011;5819;49.648;8.330;2022-12-19T09:37:04;57.13;;;30.73;;
11524;SDS011;5819;49.648;8.330;2022-12-19T09:39:32;55.03;;;29.93;;
11524;SDS011;5819;49.648;8.330;2022-12-19T09:42:12;53.83;;;31.93;;
11524;SDS011;5819;49.648;8.330;2022-12-19T09:44:55;56.93;;;31.87;;
11524;SDS011;5819;49.648;8.330;2022-12-19T09:47:40;55.33;;;30.90;;
11524;SDS011;5819;49.648;8.330;2022-12-19T09:50:16;56.93;;;31.83;;
11524;SDS011;5819;49.648;8.330;2022-12-19T09:52:54;52.10;;;30.90;;
11524;SDS011;5819;49.648;8.330;2022-12-19T09:55:27;54.80;;;30.27;;
11524;SDS011;5819;49.648;8.330;2022-12-19T09:58:02;55.90;;;31.13;;
11524;SDS011;5819;49.648;8.330;2022-12-19T10:00:36;58.03;;;31.30;;
11524;SDS011;5819;49.648;8.330;2022-12-19T10:03:11;56.60;;;32.07;;
11524;SDS011;5819;49.648;8.330;2022-12-19T10:05:45;53.73;;;30.77;;
11524;SDS011;5819;49.648;8.330;2022-12-19T10:08:38;54.83;;;31.77;;
11524;SDS011;5819;49.648;8.330;2022-12-19T10:11:36;54.20;;;30.83;;
11524;SDS011;5819;49.648;8.330;2022-12-19T10:14:39;52.50;;;30.37;;
11524;SDS011;5819;49.648;8.330;2022-12-19T10:17:17;51.37;;;31.20;;
11524;SDS011;5819;49.648;8.330;2022-12-19T10:20:09;55.70;;;31.83;;
11524;SDS011;5819;49.648;8.330;2022-12-19T10:22:49;54.47;;;31.23;;
11524;SDS011;5819;49.648;8.330;2022-12-19T10:25:27;56.70;;;31.03;;
11524;SDS011;5819;49.648;8.330;2022-12-19T10:28:05;58.90;;;31.53;;
11524;SDS011;5819;49.648;8.330;2022-12-19T10:30:44;54.00;;;30.10;;
11524;SDS011;5819;49.648;8.330;2022-12-19T10:33:18;53.77;;;30.97;;
11524;SDS011;5819;49.648;8.330;2022-12-19T10:35:54;52.10;;;30.43;;
11524;SDS011;5819;49.648;8.330;2022-12-19T10:38:29;55.43;;;31.93;;
11524;SDS011;5819;49.648;8.330;2022-12-19T10:41:10;56.97;;;32.77;;
11524;SDS011;5819;49.648;8.330;2022-12-19T10:43:45;53.53;;;31.37;;
11524;SDS011;5819;49.648;8.330;2022-12-19T10:46:22;57.67;;;32.13;;
11524;SDS011;5819;49.648;8.330;2022-12-19T10:48:58;55.20;;;31.73;;
11524;SDS011;5819;49.648;8.330;2022-12-19T10:51:27;52.87;;;29.87;;
11524;SDS011;5819;49.648;8.330;2022-12-19T10:53:58;55.97;;;31.50;;
11524;SDS011;5819;49.648;8.330;2022-12-19T10:56:27;54.17;;;32.03;;
11524;SDS011;5819;49.648;8.330;2022-12-19T10:59:02;50.97;;;30.27;;
11524;SDS011;5819;49.648;8.330;2022-12-19T11:01:42;55.90;;;31.70;;
11524;SDS011;5819;49.648;8.330;2022-12-19T11:04:18;52.10;;;30.93;;
11524;SDS011;5819;49.648;8.330;2022-12-19T11:07:03;54.27;;;31.40;;
11524;SDS011;5819;49.648;8.330;2022-12-19T11:09:35;51.60;;;30.57;;
11524;SDS011;5819;49.648;8.330;2022-12-19T11:12:09;57.27;;;32.67;;
11524;SDS011;5819;49.648;8.330;2022-12-19T11:15:06;54.80;;;31.47;;
11524;SDS011;5819;49.648;8.330;2022-12-19T11:18:06;53.67;;;32.33;;
11524;SDS011;5819;49.648;8.330;2022-12-19T11:20:56;54.07;;;32.33;;
11524;SDS011;5819;49.648;8.330;2022-12-19T11:23:48;52.77;;;32.07;;
11524;SDS011;5819;49.648;8.330;2022-12-19T11:26:40;53.27;;;31.90;;
11524;SDS011;5819;49.648;8.330;2022-12-19T11:29:41;54.43;;;32.33;;
11524;SDS011;5819;49.648;8.330;2022-12-19T11:32:32;58.03;;;32.37;;
11524;SDS011;5819;49.648;8.330;2022-12-19T11:35:20;56.17;;;32.47;;
11524;SDS011;5819;49.648;8.330;2022-12-19T11:38:02;52.50;;;31.73;;
11524;SDS011;5819;49.648;8.330;2022-12-19T11:40:32;58.03;;;33.10;;
11524;SDS011;5819;49.648;8.330;2022-12-19T11:43:14;53.47;;;33.17;;
11524;SDS011;5819;49.648;8.330;2022-12-19T11:46:09;53.90;;;32.20;;
11524;SDS011;5819;49.648;8.330;2022-12-19T11:48:48;53.60;;;32.47;;
11524;SDS011;5819;49.648;8.330;2022-12-19T11:51:22;52.27;;;31.73;;
11524;SDS011;5819;49.648;8.330;2022-12-19T11:53:55;55.97;;;32.10;;
11524;SDS011;5819;49.648;8.330;2022-12-19T11:56:32;56.87;;;32.67;;
11524;SDS011;5819;49.648;8.330;2022-12-19T11:59:03;52.93;;;32.23;;
11524;SDS011;5819;49.648;8.330;2022-12-19T12:01:40;49.73;;;30.53;;
11524;SDS011;5819;49.648;8.330;2022-12-19T12:04:25;52.17;;;32.10;;
11524;SDS011;5819;49.648;8.330;2022-12-19T12:07:06;52.40;;;31.57;;
11524;SDS011;5819;49.648;8.330;2022-12-19T12:09:55;51.57;;;32.17;;
11524;SDS011;5819;49.648;8.330;2022-12-19T12:12:53;49.33;;;29.80;;
11524;SDS011;5819;49.648;8.330;2022-12-19T12:15:50;53.03;;;31.67;;
11524;SDS011;5819;49.648;8.330;2022-12-19T12:18:51;48.50;;;31.47;;
11524;SDS011;5819;49.648;8.330;2022-12-19T12:21:51;45.90;;;29.47;;
11524;SDS011;5819;49.648;8.330;2022-12-19T12:24:55;52.33;;;32.23;;
11524;SDS011;5819;49.648;8.330;2022-12-19T12:27:53;54.73;;;32.93;;
11524;SDS011;5819;49.648;8.330;2022-12-19T12:30:54;51.23;;;31.43;;
11524;SDS011;5819;49.648;8.330;2022-12-19T12:33:52;54.43;;;32.33;;
11524;SDS011;5819;49.648;8.330;2022-12-19T12:36:51;55.20;;;32.33;;
11524;SDS011;5819;49.648;8.330;2022-12-19T12:39:49;53.37;;;32.77;;
11524;SDS011;5819;49.648;8.330;2022-12-19T12:42:32;57.63;;;34.40;;
11524;SDS011;5819;49.648;8.330;2022-12-19T12:45:16;52.77;;;32.43;;
11524;SDS011;5819;49.648;8.330;2022-12-19T12:47:46;54.17;;;33.77;;
11524;SDS011;5819;49.648;8.330;2022-12-19T12:50:18;51.37;;;32.20;;
11524;SDS011;5819;49.648;8.330;2022-12-19T12:52:49;54.07;;;33.00;;
11524;SDS011;5819;49.648;8.330;2022-12-19T12:55:24;54.17;;;33.83;;
11524;SDS011;5819;49.648;8.330;2022-12-19T12:57:54;55.57;;;33.03;;
11524;SDS011;5819;49.648;8.330;2022-12-19T13:00:24;49.83;;;32.43;;
11524;SDS011;5819;49.648;8.330;2022-12-19T13:02:54;53.17;;;32.93;;
11524;SDS011;5819;49.648;8.330;2022-12-19T13:05:37;50.10;;;31.97;;
11524;SDS011;5819;49.648;8.330;2022-12-19T13:08:29;54.67;;;33.07;;
11524;SDS011;5819;49.648;8.330;2022-12-19T13:11:03;49.63;;;31.53;;
11524;SDS011;5819;49.648;8.330;2022-12-19T13:13:52;55.57;;;33.27;;
11524;SDS011;5819;49.648;8.330;2022-12-19T13:19:20;57.40;;;33.53;;
11524;SDS011;5819;49.648;8.330;2022-12-19T13:22:14;51.60;;;32.67;;
11524;SDS011;5819;49.648;8.330;2022-12-19T13:24:45;50.60;;;32.10;;
11524;SDS011;5819;49.648;8.330;2022-12-19T13:27:36;54.33;;;32.97;;
11524;SDS011;5819;49.648;8.330;2022-12-19T13:30:12;53.77;;;33.10;;
11524;SDS011;5819;49.648;8.330;2022-12-19T13:35:37;53.33;;;32.80;;
11524;SDS011;5819;49.648;8.330;2022-12-19T13:38:25;50.27;;;32.23;;
11524;SDS011;5819;49.648;8.330;2022-12-19T13:41:26;55.27;;;32.60;;
11524;SDS011;5819;49.648;8.330;2022-12-19T13:44:14;53.07;;;32.20;;
11524;SDS011;5819;49.648;8.330;2022-12-19T13:46:45;53.37;;;32.37;;
11524;SDS011;5819;49.648;8.330;2022-12-19T13:49:13;55.77;;;35.10;;
11524;SDS011;5819;49.648;8.330;2022-12-19T13:51:46;55.37;;;32.90;;
11524;SDS011;5819;49.648;8.330;2022-12-19T13:54:22;52.50;;;32.97;;
11524;SDS011;5819;49.648;8.330;2022-12-19T13:56:52;60.67;;;36.57;;
11524;SDS011;5819;49.648;8.330;2022-12-19T13:59:22;55.20;;;35.90;;
11524;SDS011;5819;49.648;8.330;2022-12-19T14:01:52;57.87;;;34.87;;
11524;SDS011;5819;49.648;8.330;2022-12-19T14:04:25;56.67;;;35.97;;
11524;SDS011;5819;49.648;8.330;2022-12-19T14:06:56;56.93;;;34.77;;
11524;SDS011;5819;49.648;8.330;2022-12-19T14:09:27;61.80;;;35.70;;
11524;SDS011;5819;49.648;8.330;2022-12-19T14:12:19;56.80;;;35.13;;
11524;SDS011;5819;49.648;8.330;2022-12-19T14:15:29;62.83;;;34.27;;
11524;SDS011;5819;49.648;8.330;2022-12-19T14:18:00;57.87;;;35.23;;
11524;SDS011;5819;49.648;8.330;2022-12-19T14:20:49;57.43;;;33.33;;
11524;SDS011;5819;49.648;8.330;2022-12-19T14:23:38;54.37;;;34.50;;
11524;SDS011;5819;49.648;8.330;2022-12-19T14:26:11;55.17;;;35.87;;
11524;SDS011;5819;49.648;8.330;2022-12-19T14:29:04;54.47;;;33.43;;
11524;SDS011;5819;49.648;8.330;2022-12-19T14:31:36;48.23;;;33.17;;
11524;SDS011;5819;49.648;8.330;2022-12-19T14:34:28;53.83;;;32.63;;
11524;SDS011;5819;49.648;8.330;2022-12-19T14:37:25;53.37;;;32.03;;
11524;SDS011;5819;49.648;8.330;2022-12-19T14:40:18;53.50;;;33.60;;
11524;SDS011;5819;49.648;8.330;2022-12-19T14:42:49;56.87;;;35.00;;
11524;SDS011;5819;49.648;8.330;2022-12-19T14:46:08;57.60;;;34.93;;
11524;SDS011;5819;49.648;8.330;2022-12-19T14:48:59;56.67;;;34.73;;
11524;SDS011;5819;49.648;8.330;2022-12-19T14:51:48;56.10;;;33.67;;
11524;SDS011;5819;49.648;8.330;2022-12-19T14:54:37;58.47;;;35.40;;
11524;SDS011;5819;49.648;8.330;2022-12-19T14:57:24;55.33;;;34.10;;
11524;SDS011;5819;49.648;8.330;2022-12-19T15:00:23;52.83;;;34.03;;
11524;SDS011;5819;49.648;8.330;2022-12-19T15:03:15;56.77;;;33.27;;
11524;SDS011;5819;49.648;8.330;2022-12-19T15:05:49;52.87;;;33.53;;
11524;SDS011;5819;49.648;8.330;2022-12-19T15:08:21;54.73;;;33.90;;
11524;SDS011;5819;49.648;8.330;2022-12-19T15:11:23;53.70;;;33.80;;
11524;SDS011;5819;49.648;8.330;2022-12-19T15:14:31;54.23;;;34.53;;
11524;SDS011;5819;49.648;8.330;2022-12-19T15:17:23;51.80;;;33.30;;
11524;SDS011;5819;49.648;8.330;2022-12-19T15:19:51;62.30;;;35.47;;
11524;SDS011;5819;49.648;8.330;2022-12-19T15:22:22;55.77;;;33.70;;
11524;SDS011;5819;49.648;8.330;2022-12-19T15:24:50;63.27;;;36.57;;
11524;SDS011;5819;49.648;8.330;2022-12-19T15:27:19;57.00;;;35.60;;
11524;SDS011;5819;49.648;8.330;2022-12-19T15:29:48;54.07;;;34.70;;